UTDK

Details ICAO UTDK (TJU)
Name KULYAB
Region Tajikistan, Turkmenistan and Uzbekistan
Timezone Asia/Dushanbe (UTC+5.0)
Plans Departing 5
Arriving 7
Stats Elevation 2,293 ft / 699 m (AMSL)
Location 37.988334° 69.806667°
Runways 1
Magnetic Variation 4.195° E
Sunrise 2018-05-27 00:03:51 UTC / 2018-05-27 05:03:51 Local
Sunset 2018-05-27 14:34:51 UTC / 2018-05-27 19:34:51 Local
Advertisement - Login to hide

Runways

ID Width Length Bearing (true) Bearing (mag) Surface Threshold Offset Overrun Length
01 137 ft / 42 m 10,147 ft / 3,093 m 16.46° 12.26° Asphalt 0 ft / 0 m 0 ft / 0 m
19 137 ft / 42 m 10,147 ft / 3,093 m 196.47° 192.27° Asphalt 0 ft / 0 m 0 ft / 0 m

Map

Weather


0- 5 10 15 20 25 30 35+ Temperature / ° C

Clouds and Precipitation
Forecast for 2018-05-27 06:00 UTC. Updated 41 minutes ago

Ground ~20,000 ft ~40,000 ft Winds

METAR

UTDK 270600Z VRB02MPS 9999 NSC 31/11 Q1013 R01/09//70 RMK QFE703/0937

TAF

Not found

Frequencies

Tower 118.50 MHz TWR
Warning: Do not use this data for real-world aviation or navigation. No guarantee of current accuracy is given.